Time;durP1;ratioP1;P1;durP2;ratioP2;P2;SDS_P1;SDS_P2;PMS_P1;PMS_P2;Temp;Humidity;BMP_temperature;BMP_pressure;BME280_temperature;BME280_humidity;BME280_pressure;Samples;Min_cycle;Max_cycle;Signal;HPM_P1;HPM_P2
2023/03/17 00:00:19;;;;;;;5.75;3.70;;;;;;;;;;6163167;23;20001;-79
2023/03/17 00:02:46;;;;;;;7.03;4.07;;;;;;;;;;6188812;23;20088;-79
2023/03/17 00:05:23;;;;;;;6.25;4.47;;;;;;;;;;6189151;23;20008;-79
2023/03/17 00:07:50;;;;;;;7.57;4.25;;;;;;;;;;6189402;23;20029;-79
2023/03/17 00:10:18;;;;;;;8.30;4.20;;;;;;;;;;6189473;23;20001;-80
2023/03/17 00:12:45;;;;;;;6.28;3.90;;;;;;;;;;6189469;23;20004;-80
2023/03/17 00:15:12;;;;;;;5.55;3.22;;;;;;;;;;6189850;23;20008;-79
2023/03/17 00:17:38;;;;;;;5.80;3.90;;;;;;;;;;6189631;23;20424;-79
2023/03/17 00:20:05;;;;;;;5.05;3.80;;;;;;;;;;6190022;23;20002;-79
2023/03/17 00:22:31;;;;;;;5.30;3.63;;;;;;;;;;6189577;23;20071;-79
2023/03/17 00:24:57;;;;;;;6.00;4.03;;;;;;;;;;6189600;23;20352;-79
2023/03/17 00:27:23;;;;;;;6.57;3.80;;;;;;;;;;6162757;23;20009;-80
2023/03/17 00:29:49;;;;;;;7.22;4.13;;;;;;;;;;6189380;23;20001;-79
2023/03/17 00:32:16;;;;;;;6.03;3.97;;;;;;;;;;6189508;23;20088;-79
2023/03/17 00:34:43;;;;;;;5.40;3.85;;;;;;;;;;6189864;23;20008;-79
2023/03/17 00:37:12;;;;;;;6.13;3.92;;;;;;;;;;6189875;23;20379;-79
2023/03/17 00:39:39;;;;;;;5.55;3.88;;;;;;;;;;6189618;23;20024;-79
2023/03/17 00:42:06;;;;;;;6.85;4.10;;;;;;;;;;6165080;23;20319;-79
2023/03/17 00:44:33;;;;;;;6.22;4.13;;;;;;;;;;6190546;23;19997;-80
2023/03/17 00:47:01;;;;;;;6.28;4.22;;;;;;;;;;6189441;23;20320;-79
2023/03/17 00:49:27;;;;;;;6.85;4.53;;;;;;;;;;6188664;23;20033;-80
2023/03/17 00:51:53;;;;;;;8.32;4.43;;;;;;;;;;6162015;23;20084;-79
2023/03/17 00:54:20;;;;;;;5.57;4.10;;;;;;;;;;6189087;23;20055;-79
2023/03/17 00:56:47;;;;;;;6.22;4.43;;;;;;;;;;6188659;23;19997;-80
2023/03/17 00:59:34;;;;;;;7.10;4.40;;;;;;;;;;6188968;23;20436;-79
2023/03/17 01:02:00;;;;;;;7.85;4.35;;;;;;;;;;6188669;23;20013;-79
2023/03/17 01:04:26;;;;;;;6.15;4.32;;;;;;;;;;6162267;23;20001;-79
2023/03/17 01:06:52;;;;;;;10.18;4.85;;;;;;;;;;6188640;23;20001;-79
2023/03/17 01:09:19;;;;;;;6.40;4.40;;;;;;;;;;6162215;23;20012;-79
2023/03/17 01:11:45;;;;;;;5.72;4.45;;;;;;;;;;6188845;23;20005;-79
2023/03/17 01:14:12;;;;;;;7.40;4.55;;;;;;;;;;6188444;23;20640;-79
2023/03/17 01:16:38;;;;;;;5.30;4.35;;;;;;;;;;6188373;23;20428;-80
2023/03/17 01:19:05;;;;;;;6.28;4.30;;;;;;;;;;6189315;23;20028;-79
2023/03/17 01:21:31;;;;;;;8.50;4.90;;;;;;;;;;6188215;23;20001;-79
2023/03/17 01:23:57;;;;;;;5.35;4.32;;;;;;;;;;6188405;23;20001;-80
2023/03/17 01:26:23;;;;;;;6.53;4.30;;;;;;;;;;6188617;23;20004;-79
2023/03/17 01:28:49;;;;;;;8.32;4.15;;;;;;;;;;6188241;23;20001;-80
2023/03/17 01:31:22;;;;;;;6.32;4.35;;;;;;;;;;6188215;23;20119;-80
2023/03/17 01:33:48;;;;;;;7.25;4.30;;;;;;;;;;6188748;23;20032;-79
2023/03/17 01:36:14;;;;;;;6.15;4.40;;;;;;;;;;6188103;23;20373;-79
2023/03/17 01:38:41;;;;;;;6.75;4.35;;;;;;;;;;6188536;23;20012;-79
2023/03/17 01:41:07;;;;;;;6.18;4.28;;;;;;;;;;6188469;23;20004;-79
2023/03/17 01:43:33;;;;;;;8.15;4.38;;;;;;;;;;6162058;23;20029;-79
2023/03/17 01:46:11;;;;;;;8.15;4.25;;;;;;;;;;6188712;23;20108;-79
2023/03/17 01:48:39;;;;;;;5.15;4.10;;;;;;;;;;6188171;23;20080;-79
2023/03/17 01:51:06;;;;;;;6.80;3.80;;;;;;;;;;6161533;23;20012;-79
2023/03/17 01:53:34;;;;;;;5.93;4.05;;;;;;;;;;6161624;23;20008;-80
2023/03/17 01:56:01;;;;;;;5.45;3.95;;;;;;;;;;6188369;23;20412;-80
2023/03/17 01:58:28;;;;;;;5.25;3.80;;;;;;;;;;6188083;23;20408;-79
2023/03/17 02:00:54;;;;;;;6.00;4.40;;;;;;;;;;6188582;23;20079;-79
2023/03/17 02:03:21;;;;;;;7.47;3.90;;;;;;;;;;6182053;23;20067;-79
2023/03/17 02:05:50;;;;;;;8.20;4.22;;;;;;;;;;6187921;23;20071;-79
2023/03/17 02:08:16;;;;;;;6.57;3.85;;;;;;;;;;6188383;23;20079;-79
2023/03/17 02:10:43;;;;;;;6.13;4.22;;;;;;;;;;6187619;23;20011;-79
2023/03/17 02:13:40;;;;;;;5.53;3.83;;;;;;;;;;6188110;23;20427;-79
2023/03/17 02:16:07;;;;;;;6.50;4.22;;;;;;;;;;6187639;23;20073;-79
2023/03/17 02:18:33;;;;;;;6.95;3.85;;;;;;;;;;6187767;23;20406;-79
2023/03/17 02:21:17;;;;;;;5.38;3.95;;;;;;;;;;6187811;23;20023;-79
2023/03/17 02:23:43;;;;;;;6.25;3.80;;;;;;;;;;6187944;23;19993;-79
2023/03/17 02:26:10;;;;;;;5.43;3.95;;;;;;;;;;6187465;23;20005;-79
2023/03/17 02:28:37;;;;;;;4.97;3.85;;;;;;;;;;6185895;23;20013;-80
2023/03/17 02:31:03;;;;;;;5.43;4.15;;;;;;;;;;6188045;23;20455;-79
2023/03/17 02:33:30;;;;;;;5.75;3.72;;;;;;;;;;6187726;23;20363;-79
2023/03/17 02:36:03;;;;;;;5.07;4.03;;;;;;;;;;6187992;23;20047;-79
2023/03/17 02:38:29;;;;;;;6.72;4.07;;;;;;;;;;6187995;23;20011;-79
2023/03/17 02:40:55;;;;;;;6.88;4.15;;;;;;;;;;6188232;23;20064;-79
2023/03/17 02:43:21;;;;;;;5.03;4.00;;;;;;;;;;6188342;23;20308;-80
2023/03/17 02:45:47;;;;;;;6.78;3.90;;;;;;;;;;6186652;23;20005;-79
2023/03/17 02:48:13;;;;;;;6.40;4.03;;;;;;;;;;6189779;23;20068;-79
2023/03/17 02:50:39;;;;;;;5.88;3.88;;;;;;;;;;6190610;23;20047;-79
2023/03/17 02:53:06;;;;;;;5.15;3.70;;;;;;;;;;6188005;23;20424;-79
2023/03/17 02:55:40;;;;;;;5.30;4.47;;;;;;;;;;6190260;23;20300;-79
2023/03/17 02:58:20;;;;;;;4.88;3.67;;;;;;;;;;6190374;23;20059;-79
2023/03/17 03:00:46;;;;;;;5.68;3.60;;;;;;;;;;6189946;23;20363;-79
2023/03/17 03:03:12;;;;;;;6.63;4.10;;;;;;;;;;6187915;23;20017;-79
2023/03/17 03:05:38;;;;;;;4.03;3.35;;;;;;;;;;6190691;23;20124;-79
2023/03/17 03:08:04;;;;;;;5.88;3.70;;;;;;;;;;6190375;23;20085;-79
2023/03/17 03:10:31;;;;;;;5.03;3.60;;;;;;;;;;6190273;23;20001;-79
2023/03/17 03:12:57;;;;;;;5.40;3.63;;;;;;;;;;6188862;23;20375;-79
2023/03/17 03:15:23;;;;;;;6.90;3.53;;;;;;;;;;6190804;23;20001;-79
2023/03/17 03:17:50;;;;;;;4.35;3.63;;;;;;;;;;6190525;23;20052;-79
2023/03/17 03:20:16;;;;;;;4.05;3.33;;;;;;;;;;6189038;23;19997;-79
2023/03/17 03:22:42;;;;;;;6.70;3.80;;;;;;;;;;6190367;23;20541;-79
2023/03/17 03:25:08;;;;;;;4.50;3.35;;;;;;;;;;6190481;23;20028;-79
2023/03/17 03:27:34;;;;;;;5.90;3.42;;;;;;;;;;6189598;23;20432;-79
2023/03/17 03:30:00;;;;;;;4.40;3.28;;;;;;;;;;6190321;23;20005;-79
2023/03/17 03:32:26;;;;;;;4.78;3.30;;;;;;;;;;6189978;23;20032;-79
2023/03/17 03:34:53;;;;;;;4.70;3.50;;;;;;;;;;6189936;23;20494;-79
2023/03/17 03:37:19;;;;;;;5.63;3.50;;;;;;;;;;6188590;23;20088;-79
2023/03/17 03:40:02;;;;;;;4.68;3.10;;;;;;;;;;6190098;23;20036;-79
2023/03/17 03:42:28;;;;;;;4.28;3.22;;;;;;;;;;6190083;23;20008;-79
2023/03/17 03:44:54;;;;;;;6.97;3.40;;;;;;;;;;6188071;23;20001;-79
2023/03/17 03:47:20;;;;;;;4.22;3.55;;;;;;;;;;6189895;23;20001;-79
2023/03/17 03:49:46;;;;;;;4.53;3.13;;;;;;;;;;6189295;23;20008;-79
2023/03/17 03:52:12;;;;;;;4.75;3.85;;;;;;;;;;6189341;23;20029;-79
2023/03/17 03:54:38;;;;;;;4.20;3.35;;;;;;;;;;6188987;23;20008;-79
2023/03/17 03:57:04;;;;;;;4.90;3.50;;;;;;;;;;6187073;23;20083;-79
2023/03/17 03:59:30;;;;;;;4.72;3.30;;;;;;;;;;6189675;23;20489;-79
2023/03/17 04:01:56;;;;;;;5.95;3.35;;;;;;;;;;6189034;23;20083;-79
2023/03/17 04:04:22;;;;;;;4.78;3.45;;;;;;;;;;6189577;23;20005;-79
2023/03/17 04:06:48;;;;;;;4.82;3.47;;;;;;;;;;6189644;23;20029;-79
2023/03/17 04:09:14;;;;;;;5.38;3.70;;;;;;;;;;6189207;23;20012;-79
2023/03/17 04:11:41;;;;;;;4.95;3.35;;;;;;;;;;6189654;23;20076;-79
2023/03/17 04:14:07;;;;;;;7.40;3.83;;;;;;;;;;6189004;23;20005;-79
2023/03/17 04:16:33;;;;;;;4.80;3.65;;;;;;;;;;6189336;23;19997;-80
2023/03/17 04:18:59;;;;;;;5.35;3.65;;;;;;;;;;6188811;23;20005;-79
2023/03/17 04:21:25;;;;;;;4.57;3.60;;;;;;;;;;6188864;23;20053;-79
2023/03/17 04:24:01;;;;;;;6.45;3.80;;;;;;;;;;6188501;23;19997;-79
2023/03/17 04:26:38;;;;;;;5.80;3.55;;;;;;;;;;6161975;23;20016;-79
2023/03/17 04:29:26;;;;;;;6.05;3.50;;;;;;;;;;6188375;23;20012;-79
2023/03/17 04:31:52;;;;;;;4.43;3.15;;;;;;;;;;6188916;23;20080;-79
2023/03/17 04:34:18;;;;;;;5.38;3.65;;;;;;;;;;6189364;23;20005;-79
2023/03/17 04:36:46;;;;;;;4.03;3.20;;;;;;;;;;6188812;23;20633;-79
2023/03/17 04:39:12;;;;;;;4.90;3.40;;;;;;;;;;6188288;23;20001;-79
2023/03/17 04:41:38;;;;;;;5.07;3.28;;;;;;;;;;6189018;23;20124;-79
2023/03/17 04:44:04;;;;;;;5.28;3.60;;;;;;;;;;6162127;23;20079;-80
2023/03/17 04:46:30;;;;;;;5.28;3.58;;;;;;;;;;6188840;23;20442;-79
2023/03/17 04:48:56;;;;;;;5.90;3.42;;;;;;;;;;6188522;23;20415;-79
2023/03/17 04:51:22;;;;;;;5.32;3.63;;;;;;;;;;6161703;23;20320;-79
2023/03/17 04:53:48;;;;;;;6.20;3.33;;;;;;;;;;6188866;23;19997;-79
2023/03/17 04:56:15;;;;;;;5.10;3.40;;;;;;;;;;6188912;23;19997;-79
2023/03/17 04:58:41;;;;;;;5.57;4.15;;;;;;;;;;6188601;23;20408;-79
2023/03/17 05:01:07;;;;;;;5.80;3.88;;;;;;;;;;6188345;23;19997;-80
2023/03/17 05:03:34;;;;;;;4.47;3.30;;;;;;;;;;6188126;23;20009;-79
2023/03/17 05:06:00;;;;;;;5.38;3.88;;;;;;;;;;6161996;23;20016;-79
2023/03/17 05:08:27;;;;;;;6.45;3.75;;;;;;;;;;6188313;23;19997;-79
2023/03/17 05:11:11;;;;;;;5.03;3.40;;;;;;;;;;6162254;23;20009;-79
2023/03/17 05:17:38;;;;;;;5.20;3.60;;;;;;;;;;6188567;23;20008;-79
2023/03/17 05:20:07;;;;;;;4.93;3.47;;;;;;;;;;6188348;23;20063;-79
2023/03/17 05:22:33;;;;;;;6.97;3.17;;;;;;;;;;6188435;23;20420;-79
2023/03/17 05:24:59;;;;;;;5.20;3.40;;;;;;;;;;6188083;23;19993;-79
2023/03/17 05:27:25;;;;;;;6.18;3.35;;;;;;;;;;6188323;23;20001;-79
2023/03/17 05:29:51;;;;;;;5.60;3.53;;;;;;;;;;6188001;23;20051;-79
2023/03/17 05:32:18;;;;;;;5.00;2.90;;;;;;;;;;6187981;23;20005;-79
2023/03/17 05:34:45;;;;;;;4.40;2.78;;;;;;;;;;6188288;23;20076;-79
2023/03/17 05:37:11;;;;;;;4.50;3.10;;;;;;;;;;6188294;23;20558;-79
2023/03/17 05:39:38;;;;;;;5.30;2.83;;;;;;;;;;6161191;23;20416;-80
2023/03/17 05:42:04;;;;;;;8.02;3.53;;;;;;;;;;6187832;23;20004;-80
2023/03/17 05:44:30;;;;;;;4.85;3.20;;;;;;;;;;6187830;23;19994;-79
2023/03/17 05:46:58;;;;;;;3.88;2.90;;;;;;;;;;6188126;23;20084;-79
2023/03/17 05:49:24;;;;;;;2.92;2.63;;;;;;;;;;6161514;23;20009;-79
2023/03/17 05:51:50;;;;;;;3.95;2.72;;;;;;;;;;6187771;23;20037;-79
2023/03/17 05:54:32;;;;;;;6.25;3.15;;;;;;;;;;6187984;23;20001;-79
2023/03/17 05:57:13;;;;;;;3.72;2.65;;;;;;;;;;6187860;23;20080;-79
2023/03/17 05:59:39;;;;;;;3.90;2.50;;;;;;;;;;6187950;23;20001;-79
2023/03/17 06:02:05;;;;;;;3.80;2.72;;;;;;;;;;6166429;23;20016;-79
2023/03/17 06:04:32;;;;;;;5.25;2.55;;;;;;;;;;6187620;23;20323;-79
2023/03/17 06:06:58;;;;;;;5.90;3.33;;;;;;;;;;6186745;23;20031;-79
2023/03/17 06:09:24;;;;;;;5.25;2.78;;;;;;;;;;6188223;23;20041;-79
2023/03/17 06:11:50;;;;;;;5.78;3.10;;;;;;;;;;6189266;23;20001;-80
2023/03/17 06:14:17;;;;;;;4.32;2.45;;;;;;;;;;6188315;23;20055;-79
2023/03/17 06:16:43;;;;;;;3.50;2.53;;;;;;;;;;6189731;23;20419;-80
2023/03/17 06:19:09;;;;;;;3.97;3.00;;;;;;;;;;6186010;23;20033;-79
2023/03/17 06:21:35;;;;;;;5.28;3.20;;;;;;;;;;6187037;23;20343;-79
2023/03/17 06:24:01;;;;;;;4.53;2.60;;;;;;;;;;6188024;23;19997;-79
2023/03/17 06:26:27;;;;;;;4.75;2.53;;;;;;;;;;6186658;23;20005;-80
2023/03/17 06:28:53;;;;;;;4.03;3.03;;;;;;;;;;6186825;23;20439;-80
2023/03/17 06:31:20;;;;;;;9.45;4.85;;;;;;;;;;6187236;23;20008;-80
2023/03/17 06:33:47;;;;;;;3.80;2.70;;;;;;;;;;6188063;23;20001;-79
2023/03/17 06:36:13;;;;;;;3.15;2.80;;;;;;;;;;6187650;23;20007;-80
2023/03/17 06:38:40;;;;;;;3.70;2.70;;;;;;;;;;6189085;23;20052;-79
2023/03/17 06:41:16;;;;;;;3.25;2.78;;;;;;;;;;6189488;23;20072;-80
2023/03/17 06:43:42;;;;;;;5.93;2.97;;;;;;;;;;6189389;23;20032;-79
2023/03/17 06:46:08;;;;;;;4.35;2.67;;;;;;;;;;6190358;23;20044;-80
2023/03/17 06:48:34;;;;;;;4.03;2.88;;;;;;;;;;6188675;23;20522;-81
2023/03/17 06:51:00;;;;;;;2.70;2.38;;;;;;;;;;6189474;23;20363;-80
2023/03/17 06:53:26;;;;;;;6.80;3.17;;;;;;;;;;6189527;23;20059;-80
2023/03/17 06:55:52;;;;;;;3.55;2.60;;;;;;;;;;6189195;23;20009;-81
2023/03/17 06:58:19;;;;;;;4.47;2.92;;;;;;;;;;6189694;23;20001;-80
2023/03/17 07:00:47;;;;;;;5.13;3.30;;;;;;;;;;6187528;23;20076;-79
2023/03/17 07:03:14;;;;;;;4.93;3.03;;;;;;;;;;6187545;23;20483;-80
2023/03/17 07:05:40;;;;;;;3.50;3.00;;;;;;;;;;6163524;23;20061;-80
2023/03/17 07:08:07;;;;;;;4.78;3.10;;;;;;;;;;6189622;23;20008;-80
2023/03/17 07:10:33;;;;;;;5.55;2.92;;;;;;;;;;6189842;23;20009;-80
2023/03/17 07:12:59;;;;;;;4.18;2.78;;;;;;;;;;6188838;23;20327;-80
2023/03/17 07:15:25;;;;;;;7.38;3.25;;;;;;;;;;6187601;23;20446;-81
2023/03/17 07:17:51;;;;;;;5.35;2.95;;;;;;;;;;6162683;23;20006;-81
2023/03/17 07:20:17;;;;;;;5.50;3.10;;;;;;;;;;6188883;23;20005;-81
2023/03/17 07:22:46;;;;;;;4.00;3.20;;;;;;;;;;6163304;23;20005;-81
2023/03/17 07:25:25;;;;;;;5.32;3.10;;;;;;;;;;6190705;23;19997;-81
2023/03/17 07:27:50;;;;;;;5.65;2.90;;;;;;;;;;6163344;23;20008;-80
2023/03/17 07:30:18;;;;;;;4.03;2.58;;;;;;;;;;6189822;23;20009;-81
2023/03/17 07:32:47;;;;;;;3.70;2.65;;;;;;;;;;6191034;23;20001;-81
2023/03/17 07:35:14;;;;;;;4.45;2.60;;;;;;;;;;6171452;23;20005;-80
2023/03/17 07:37:40;;;;;;;3.90;3.05;;;;;;;;;;6201578;23;19997;-81
2023/03/17 07:40:08;;;;;;;5.60;2.90;;;;;;;;;;6203183;23;20412;-80
2023/03/17 07:42:34;;;;;;;5.72;3.00;;;;;;;;;;6192888;23;20013;-81
2023/03/17 07:45:00;;;;;;;6.57;3.28;;;;;;;;;;6201954;23;20043;-80
2023/03/17 07:47:26;;;;;;;5.93;2.65;;;;;;;;;;6201914;23;20001;-81
2023/03/17 07:49:52;;;;;;;7.43;2.85;;;;;;;;;;6201972;23;20084;-81
2023/03/17 07:52:18;;;;;;;4.90;2.60;;;;;;;;;;6199261;23;20001;-80
2023/03/17 07:54:44;;;;;;;4.38;2.83;;;;;;;;;;6198325;23;20001;-81
2023/03/17 07:57:11;;;;;;;4.07;2.80;;;;;;;;;;6201581;23;20009;-81
2023/03/17 07:59:38;;;;;;;4.63;3.10;;;;;;;;;;6196832;23;20008;-81
2023/03/17 08:02:05;;;;;;;4.80;3.00;;;;;;;;;;6197409;23;20024;-81
2023/03/17 08:04:31;;;;;;;4.22;2.90;;;;;;;;;;6198743;23;20005;-82
2023/03/17 08:06:57;;;;;;;4.00;2.70;;;;;;;;;;6200718;23;20327;-80
2023/03/17 08:09:23;;;;;;;4.63;3.20;;;;;;;;;;6198569;23;20327;-81
2023/03/17 08:11:49;;;;;;;4.10;2.67;;;;;;;;;;6200550;23;20006;-81
2023/03/17 08:14:15;;;;;;;4.97;3.20;;;;;;;;;;6199314;23;20069;-80
2023/03/17 08:16:42;;;;;;;4.45;2.85;;;;;;;;;;6200942;23;19997;-80
2023/03/17 08:19:09;;;;;;;6.20;2.90;;;;;;;;;;6200504;23;20011;-81
2023/03/17 08:21:35;;;;;;;4.22;2.80;;;;;;;;;;6174462;23;20437;-81
2023/03/17 08:24:03;;;;;;;4.03;2.95;;;;;;;;;;6193880;23;19997;-81
2023/03/17 08:26:30;;;;;;;8.32;4.65;;;;;;;;;;6192986;23;20001;-81
2023/03/17 08:28:56;;;;;;;4.50;2.78;;;;;;;;;;6166031;23;20331;-81
2023/03/17 08:31:22;;;;;;;5.35;3.13;;;;;;;;;;6195501;23;20033;-81
2023/03/17 08:33:49;;;;;;;4.40;3.05;;;;;;;;;;6169551;23;20057;-81
2023/03/17 08:36:16;;;;;;;4.57;2.50;;;;;;;;;;6197200;23;20048;-81
2023/03/17 08:38:42;;;;;;;5.53;2.60;;;;;;;;;;6190477;23;20323;-81
2023/03/17 08:41:11;;;;;;;4.05;2.40;;;;;;;;;;6195902;23;20058;-81
2023/03/17 08:43:37;;;;;;;4.25;3.05;;;;;;;;;;6192456;23;20056;-81
2023/03/17 08:46:08;;;;;;;4.93;2.90;;;;;;;;;;6166063;23;20012;-82
2023/03/17 08:48:36;;;;;;;11.57;3.47;;;;;;;;;;6166794;23;20075;-81
2023/03/17 08:51:04;;;;;;;4.45;2.92;;;;;;;;;;6195109;23;19997;-81
2023/03/17 08:53:31;;;;;;;5.82;3.10;;;;;;;;;;6196624;23;19997;-81
2023/03/17 08:55:57;;;;;;;6.68;2.90;;;;;;;;;;6170094;23;20001;-81
2023/03/17 08:58:24;;;;;;;4.07;2.92;;;;;;;;;;6195861;23;20005;-81
2023/03/17 09:00:51;;;;;;;5.15;3.20;;;;;;;;;;6195606;23;20001;-81
2023/03/17 09:03:17;;;;;;;5.65;2.90;;;;;;;;;;6196307;23;20013;-81
2023/03/17 09:05:43;;;;;;;5.13;3.97;;;;;;;;;;6197953;23;20435;-81
2023/03/17 09:08:11;;;;;;;5.65;3.33;;;;;;;;;;6200106;23;20004;-81
2023/03/17 09:10:37;;;;;;;4.80;3.28;;;;;;;;;;6196225;23;20001;-81
2023/03/17 09:13:04;;;;;;;6.38;3.45;;;;;;;;;;6198908;23;20012;-81
2023/03/17 09:15:30;;;;;;;4.60;3.00;;;;;;;;;;6199879;23;20022;-81
2023/03/17 09:17:56;;;;;;;3.83;2.72;;;;;;;;;;6201244;23;20059;-81
2023/03/17 09:20:24;;;;;;;5.20;3.28;;;;;;;;;;6198187;23;20088;-81
2023/03/17 09:22:50;;;;;;;3.97;3.17;;;;;;;;;;6193977;23;20039;-81
2023/03/17 09:25:17;;;;;;;6.68;2.78;;;;;;;;;;6192315;23;19997;-79
2023/03/17 09:27:43;;;;;;;4.70;2.97;;;;;;;;;;6188724;23;19997;-80
2023/03/17 09:30:12;;;;;;;4.55;2.85;;;;;;;;;;6188339;23;20101;-80
2023/03/17 09:32:38;;;;;;;5.20;3.08;;;;;;;;;;6190457;23;20001;-80
2023/03/17 09:35:11;;;;;;;4.30;3.17;;;;;;;;;;6190203;23;20001;-80
2023/03/17 09:37:38;;;;;;;5.13;3.00;;;;;;;;;;6189884;23;20000;-80
2023/03/17 09:40:07;;;;;;;4.43;3.50;;;;;;;;;;6190180;23;20077;-80
2023/03/17 09:42:33;;;;;;;3.95;3.20;;;;;;;;;;6190361;23;20005;-80
2023/03/17 09:45:03;;;;;;;5.60;3.28;;;;;;;;;;6189894;23;20033;-81
2023/03/17 09:47:41;;;;;;;3.40;2.88;;;;;;;;;;6189914;23;20024;-81
2023/03/17 09:50:13;;;;;;;5.53;3.90;;;;;;;;;;6189194;23;20009;-81
2023/03/17 09:52:38;;;;;;;4.75;3.30;;;;;;;;;;6189488;23;20005;-82
2023/03/17 09:55:07;;;;;;;4.43;3.25;;;;;;;;;;6188726;23;20076;-82
2023/03/17 09:57:37;;;;;;;4.30;3.72;;;;;;;;;;6188622;23;20075;-82
2023/03/17 10:00:05;;;;;;;;;;;;;;;;;;6188962;23;20012;-82
2023/03/17 10:02:32;;;;;;;5.18;3.55;;;;;;;;;;6188327;23;19935;-82
2023/03/17 10:04:59;;;;;;;6.43;4.30;;;;;;;;;;6189439;23;20560;-82
2023/03/17 10:07:48;;;;;;;5.20;4.10;;;;;;;;;;6189534;23;20001;-82
2023/03/17 10:10:16;;;;;;;7.15;4.22;;;;;;;;;;6132533;23;20458;-82
2023/03/17 10:13:02;;;;;;;4.13;3.63;;;;;;;;;;6188177;23;20047;-81
2023/03/17 10:18:52;;;;;;;3.97;3.28;;;;;;;;;;6188143;23;20036;-82
2023/03/17 10:21:21;;;;;;;4.38;3.75;;;;;;;;;;6188385;23;20080;-82
2023/03/17 10:23:47;;;;;;;5.17;3.83;;;;;;;;;;6188603;23;20036;-81
2023/03/17 10:26:23;;;;;;;6.00;4.30;;;;;;;;;;6187612;23;20087;-81
2023/03/17 10:28:50;;;;;;;8.10;4.28;;;;;;;;;;6187927;23;19997;-82
2023/03/17 10:31:31;;;;;;;6.18;4.28;;;;;;;;;;6187027;23;20301;-82
2023/03/17 10:34:03;;;;;;;5.28;4.13;;;;;;;;;;6188425;23;20004;-81
2023/03/17 10:36:35;;;;;;;8.30;4.95;;;;;;;;;;6187269;23;20025;-82
2023/03/17 10:39:04;;;;;;;5.22;4.10;;;;;;;;;;6186645;23;20001;-81
2023/03/17 10:41:31;;;;;;;6.13;4.40;;;;;;;;;;6188275;23;20320;-82
2023/03/17 10:43:58;;;;;;;5.95;3.92;;;;;;;;;;6188342;23;20673;-81
2023/03/17 10:46:24;;;;;;;5.93;4.30;;;;;;;;;;6186679;23;20427;-82
2023/03/17 10:49:02;;;;;;;5.68;4.43;;;;;;;;;;6161803;23;20052;-81
2023/03/17 10:51:31;;;;;;;6.50;4.70;;;;;;;;;;6188470;23;20001;-81
2023/03/17 10:54:00;;;;;;;5.10;4.45;;;;;;;;;;6161662;23;20036;-81
2023/03/17 10:56:42;;;;;;;6.55;4.43;;;;;;;;;;6188688;23;19997;-82
2023/03/17 10:59:25;;;;;;;6.13;4.80;;;;;;;;;;6188264;23;20012;-82
2023/03/17 11:02:01;;;;;;;7.45;4.68;;;;;;;;;;6187611;23;20001;-83
2023/03/17 11:04:38;;;;;;;6.53;4.63;;;;;;;;;;6192833;23;20001;-83
2023/03/17 11:07:19;;;;;;;6.90;4.65;;;;;;;;;;6189611;23;20001;-83
2023/03/17 11:09:52;;;;;;;6.22;4.57;;;;;;;;;;6191145;23;20029;-83
2023/03/17 11:12:29;;;;;;;7.13;4.97;;;;;;;;;;6192479;23;20005;-82
2023/03/17 11:14:59;;;;;;;6.07;4.63;;;;;;;;;;6190536;23;20008;-83
2023/03/17 11:17:28;;;;;;;6.65;4.85;;;;;;;;;;6190870;23;20001;-83
2023/03/17 11:20:15;;;;;;;5.18;4.30;;;;;;;;;;6193487;23;20028;-83
2023/03/17 11:22:45;;;;;;;8.02;4.78;;;;;;;;;;6190204;23;20001;-83
2023/03/17 11:25:14;;;;;;;6.07;4.55;;;;;;;;;;6190001;23;20051;-83
2023/03/17 11:28:00;;;;;;;9.52;4.85;;;;;;;;;;6190411;23;20068;-82
2023/03/17 11:30:46;;;;;;;7.43;5.30;;;;;;;;;;6190039;23;20013;-83
2023/03/17 11:33:15;;;;;;;6.18;4.78;;;;;;;;;;6192028;23;20036;-83
2023/03/17 11:35:55;;;;;;;5.32;4.53;;;;;;;;;;6190489;23;20001;-83
2023/03/17 11:38:31;;;;;;;8.07;5.22;;;;;;;;;;6190275;23;20076;-84
2023/03/17 11:41:04;;;;;;;6.38;5.07;;;;;;;;;;6190945;23;20051;-84
2023/03/17 11:44:07;;;;;;;7.53;5.22;;;;;;;;;;6188642;23;20001;-84
2023/03/17 11:46:36;;;;;;;7.65;5.00;;;;;;;;;;6188580;23;20331;-84
2023/03/17 11:49:09;;;;;;;7.05;5.47;;;;;;;;;;6191495;23;20072;-85
2023/03/17 11:51:44;;;;;;;6.20;5.22;;;;;;;;;;6189643;23;20005;-84
2023/03/17 11:54:33;;;;;;;6.45;5.13;;;;;;;;;;6190570;23;19998;-84
2023/03/17 11:57:00;;;;;;;8.50;5.30;;;;;;;;;;6148823;23;20004;-84
2023/03/17 11:59:31;;;;;;;7.00;5.82;;;;;;;;;;6188824;23;20005;-84
2023/03/17 12:02:27;;;;;;;7.07;5.20;;;;;;;;;;6188777;23;20023;-85
2023/03/17 12:04:59;;;;;;;8.10;5.80;;;;;;;;;;6160743;23;20068;-84
2023/03/17 12:07:32;;;;;;;9.57;5.70;;;;;;;;;;6161650;23;20006;-84
2023/03/17 12:10:03;;;;;;;7.07;5.35;;;;;;;;;;6161157;23;20008;-84
2023/03/17 12:12:33;;;;;;;9.35;6.43;;;;;;;;;;6133071;23;20016;-84
2023/03/17 12:14:59;;;;;;;8.43;5.97;;;;;;;;;;6159053;23;20024;-84
2023/03/17 12:17:32;;;;;;;7.90;5.97;;;;;;;;;;6158748;23;20056;-84
2023/03/17 12:19:58;;;;;;;9.80;5.78;;;;;;;;;;6157961;23;20003;-84
2023/03/17 12:22:31;;;;;;;9.18;5.55;;;;;;;;;;6159005;23;20001;-84
2023/03/17 12:25:08;;;;;;;8.32;5.97;;;;;;;;;;6159052;23;20008;-84
2023/03/17 12:27:43;;;;;;;9.45;5.68;;;;;;;;;;6159317;23;20040;-83
2023/03/17 12:30:16;;;;;;;8.88;5.80;;;;;;;;;;6133049;23;20028;-84
2023/03/17 12:32:45;;;;;;;8.73;5.80;;;;;;;;;;6160032;23;20327;-83
2023/03/17 12:35:22;;;;;;;7.33;6.13;;;;;;;;;;6158380;23;20005;-82
2023/03/17 12:37:49;;;;;;;6.70;5.95;;;;;;;;;;6160060;23;20025;-83
2023/03/17 12:40:19;;;;;;;8.00;6.43;;;;;;;;;;6133484;23;20044;-83
2023/03/17 12:45:42;;;;;;;20.85;10.57;;;;;;;;;;6159630;23;19908;-83
2023/03/17 12:48:28;;;;;;;9.80;6.90;;;;;;;;;;6131837;23;20008;-83
2023/03/17 12:51:12;;;;;;;9.07;6.20;;;;;;;;;;6159535;23;20005;-82
2023/03/17 12:53:40;;;;;;;7.25;6.00;;;;;;;;;;6159784;23;20308;-83
2023/03/17 12:56:21;;;;;;;9.57;6.20;;;;;;;;;;6160480;23;20299;-83
2023/03/17 12:58:52;;;;;;;8.75;6.90;;;;;;;;;;6159689;23;20059;-83
2023/03/17 13:01:32;;;;;;;8.10;7.05;;;;;;;;;;6157809;23;20421;-82
2023/03/17 13:03:58;;;;;;;;;;;;;;;;;;6176320;23;20013;-82
2023/03/17 13:06:24;;;;;;;10.23;6.20;;;;;;;;;;6189778;23;19900;-82
2023/03/17 13:08:51;;;;;;;10.00;6.95;;;;;;;;;;6162232;23;20084;-82
2023/03/17 13:11:17;;;;;;;9.43;6.40;;;;;;;;;;6193518;23;20005;-82
2023/03/17 13:13:43;;;;;;;7.47;6.47;;;;;;;;;;6195821;23;20012;-82
2023/03/17 13:16:29;;;;;;;11.57;7.10;;;;;;;;;;6192582;23;20001;-83
2023/03/17 13:19:13;;;;;;;9.45;7.10;;;;;;;;;;6199357;23;20063;-82
2023/03/17 13:21:44;;;;;;;9.05;6.60;;;;;;;;;;6195006;23;20072;-82
2023/03/17 13:24:16;;;;;;;11.70;7.20;;;;;;;;;;6192773;23;20001;-83
2023/03/17 13:26:56;;;;;;;9.35;6.90;;;;;;;;;;6192922;23;20001;-83
2023/03/17 13:29:43;;;;;;;11.73;7.43;;;;;;;;;;6165940;23;20005;-82
2023/03/17 13:32:15;;;;;;;10.77;6.95;;;;;;;;;;6192535;23;20013;-82
2023/03/17 13:34:47;;;;;;;12.98;7.30;;;;;;;;;;6166762;23;20008;-83
2023/03/17 13:37:20;;;;;;;10.98;8.10;;;;;;;;;;6192928;23;20019;-82
2023/03/17 13:40:11;;;;;;;21.10;11.30;;;;;;;;;;6192630;23;20011;-83
2023/03/17 13:42:50;;;;;;;8.95;6.70;;;;;;;;;;6193346;23;19997;-82
2023/03/17 13:45:23;;;;;;;9.65;7.07;;;;;;;;;;6193459;23;20021;-83
2023/03/17 13:47:52;;;;;;;7.65;6.85;;;;;;;;;;6194345;23;19997;-83
2023/03/17 13:50:23;;;;;;;11.32;7.78;;;;;;;;;;6194024;23;20438;-82
2023/03/17 13:52:54;;;;;;;10.25;7.45;;;;;;;;;;6195038;23;20040;-83
2023/03/17 13:55:20;;;;;;;11.00;7.65;;;;;;;;;;6193129;23;20029;-82
2023/03/17 13:58:04;;;;;;;9.35;7.45;;;;;;;;;;6192030;23;19997;-82
2023/03/17 14:00:32;;;;;;;11.10;7.45;;;;;;;;;;6192843;23;19997;-82
2023/03/17 14:03:16;;;;;;;11.05;7.68;;;;;;;;;;6188143;23;20017;-83
2023/03/17 14:05:45;;;;;;;10.88;7.78;;;;;;;;;;6166236;23;20005;-82
2023/03/17 14:08:29;;;;;;;10.43;7.67;;;;;;;;;;6192504;23;20000;-84
2023/03/17 14:10:58;;;;;;;11.32;8.15;;;;;;;;;;6190455;23;20222;-85
2023/03/17 14:13:26;;;;;;;7.97;7.10;;;;;;;;;;6160132;23;20039;-85
2023/03/17 14:15:55;;;;;;;11.95;7.38;;;;;;;;;;6160672;23;20416;-85
2023/03/17 14:18:31;;;;;;;9.80;7.18;;;;;;;;;;6166271;23;20001;-85
2023/03/17 14:21:01;;;;;;;10.07;7.57;;;;;;;;;;6190873;23;20005;-85
2023/03/17 14:23:27;;;;;;;;;;;;;;;;;;6190617;23;19997;-85
2023/03/17 14:25:57;;;;;;;13.45;7.50;;;;;;;;;;6187953;23;19905;-85
2023/03/17 14:28:34;;;;;;;10.15;6.82;;;;;;;;;;6159928;23;20001;-85
2023/03/17 14:31:01;;;;;;;10.10;7.05;;;;;;;;;;6186545;23;20012;-85
2023/03/17 14:33:33;;;;;;;8.90;7.13;;;;;;;;;;6159739;23;20080;-85
2023/03/17 14:36:00;;;;;;;8.95;7.47;;;;;;;;;;6160079;23;20005;-86
2023/03/17 14:38:34;;;;;;;10.88;7.50;;;;;;;;;;6186142;23;19997;-84
2023/03/17 14:41:05;;;;;;;9.70;6.70;;;;;;;;;;6160413;23;20328;-84
2023/03/17 14:43:32;;;;;;;10.48;7.65;;;;;;;;;;6186601;23;19997;-84
2023/03/17 14:46:03;;;;;;;8.25;6.82;;;;;;;;;;6160083;23;20008;-84
2023/03/17 14:48:33;;;;;;;12.20;7.05;;;;;;;;;;6160226;23;20009;-84
2023/03/17 14:51:04;;;;;;;10.25;7.25;;;;;;;;;;6187027;23;20002;-83
2023/03/17 14:53:34;;;;;;;9.13;7.20;;;;;;;;;;6187111;23;19998;-84
2023/03/17 14:56:00;;;;;;;10.10;7.28;;;;;;;;;;6159970;23;20035;-84
2023/03/17 14:58:31;;;;;;;13.82;7.93;;;;;;;;;;6159760;23;20047;-84
2023/03/17 15:01:04;;;;;;;10.60;7.50;;;;;;;;;;6159655;23;20366;-84
2023/03/17 15:03:31;;;;;;;9.52;7.45;;;;;;;;;;6163199;23;20432;-84
2023/03/17 15:06:05;;;;;;;12.60;7.22;;;;;;;;;;6184943;23;20001;-84